Terminal Aerodrome Forecast
Issued by NWS

Home | Current Version | Previous Version | Text Only | Print | Product List | Glossary On
Versions: 1 2 3 4 5 6 7 8 9 10 11 12 13 14 15 16
000
FTUS42 KTAE 280500
TAFVLD
TAF
KVLD 280528Z 2806/2906 00000KT P6SM SCT250
     FM281400 26007KT P6SM SCT030
     FM281800 24009KT P6SM VCTS BKN050CB
     FM290200 21003KT P6SM SCT050 BKN100=

USA.gov is the U.S. government's official web portal to all federal, state and local government web resources and services.